createdAt,value
2017-10-05T18:01:04.694Z,12.55
2017-10-05T18:04:43.948Z,12.45
2017-10-05T18:07:11.902Z,12.46
2017-10-05T18:09:39.974Z,12.40
2017-10-05T18:12:07.753Z,12.26
2017-10-05T18:14:37.306Z,12.34
2017-10-05T18:17:05.315Z,12.25
2017-10-05T18:19:33.081Z,12.33
2017-10-05T18:22:01.048Z,12.45
2017-10-05T18:24:28.912Z,12.52
2017-10-05T18:26:57.393Z,12.56
2017-10-05T18:29:26.557Z,12.48
2017-10-05T18:31:54.458Z,12.59
2017-10-05T18:34:22.324Z,12.60
2017-10-05T18:36:51.058Z,12.62
2017-10-05T18:39:18.888Z,12.74
2017-10-05T18:41:46.843Z,12.80
2017-10-05T18:44:15.541Z,12.89
2017-10-05T18:46:43.395Z,12.94
2017-10-05T18:49:11.262Z,12.88
2017-10-05T18:51:39.449Z,12.86
2017-10-05T18:54:07.703Z,12.86
2017-10-05T18:56:35.791Z,12.58
2017-10-05T18:59:03.655Z,12.77
2017-10-05T19:01:31.425Z,12.72
2017-10-05T19:04:00.541Z,12.71
2017-10-05T19:06:30.144Z,12.71
2017-10-05T19:09:00.575Z,12.75
2017-10-05T19:11:31.599Z,12.68
2017-10-05T19:14:01.524Z,12.53
2017-10-05T19:16:29.485Z,12.53
2017-10-05T19:18:57.229Z,12.52
2017-10-05T19:21:25.102Z,12.71
2017-10-05T19:23:53.069Z,12.64
2017-10-05T19:26:21.033Z,12.69
2017-10-05T19:28:49.106Z,12.68
2017-10-05T19:31:17.079Z,12.52
2017-10-05T19:33:45.861Z,12.50
2017-10-05T19:36:13.830Z,12.44
2017-10-05T19:38:41.975Z,12.38
2017-10-05T19:41:10.295Z,12.37
2017-10-05T19:43:38.228Z,12.36
2017-10-05T19:46:06.030Z,12.26
2017-10-05T19:48:33.980Z,12.19
2017-10-05T19:51:01.644Z,12.12
2017-10-05T19:53:29.509Z,12.13
2017-10-05T19:55:57.990Z,11.99
2017-10-05T19:58:25.739Z,12.03
2017-10-05T20:00:53.518Z,12.03
2017-10-05T20:03:21.282Z,12.03
2017-10-05T20:05:48.946Z,11.97
2017-10-05T20:08:16.617Z,11.92
2017-10-05T20:10:44.573Z,11.85
2017-10-05T20:13:12.286Z,11.87
2017-10-05T20:15:42.538Z,11.79
2017-10-05T20:18:12.984Z,11.82
2017-10-05T20:20:41.568Z,11.85
2017-10-05T20:23:17.524Z,11.68
2017-10-05T20:25:48.783Z,11.75
2017-10-05T20:28:18.601Z,11.73
2017-10-05T20:33:52.509Z,11.71
2017-10-05T20:36:20.168Z,11.76
2017-10-05T20:38:48.099Z,11.66
2017-10-05T20:41:15.994Z,11.64
2017-10-05T20:43:43.564Z,11.57
2017-10-05T20:46:11.152Z,11.58
2017-10-05T20:48:38.790Z,11.70
2017-10-05T20:51:06.449Z,11.58
2017-10-05T20:53:34.005Z,11.47
2017-10-05T20:56:01.772Z,11.53
2017-10-05T20:58:29.344Z,11.54
2017-10-05T21:00:56.959Z,11.50
2017-10-05T21:03:25.370Z,11.53
2017-10-05T21:05:52.927Z,11.46
2017-10-05T21:08:20.486Z,11.43
2017-10-05T21:10:48.296Z,11.34
2017-10-05T21:13:15.847Z,11.40
2017-10-05T21:15:43.380Z,11.20
2017-10-05T21:18:10.939Z,11.34
2017-10-05T21:20:38.488Z,11.30
2017-10-05T21:23:06.019Z,11.15
2017-10-05T21:25:33.914Z,11.03
2017-10-05T21:28:01.472Z,11.05
2017-10-05T21:30:29.054Z,11.08
2017-10-05T21:32:56.620Z,11.09
2017-10-05T21:35:24.253Z,11.10
2017-10-05T21:37:51.792Z,11.05
2017-10-05T21:40:19.367Z,11.03
2017-10-05T21:42:46.928Z,10.98
2017-10-05T21:45:14.448Z,10.95
2017-10-05T21:47:42.159Z,10.87
2017-10-05T21:50:09.709Z,10.89
2017-10-05T21:52:37.272Z,10.83
2017-10-05T21:55:05.017Z,10.81
2017-10-05T21:57:32.566Z,10.76
2017-10-05T22:00:00.111Z,10.78
2017-10-05T22:02:27.711Z,10.64
2017-10-05T22:04:55.268Z,10.67
2017-10-05T22:07:22.827Z,10.62
2017-10-05T22:09:50.489Z,10.60
2017-10-05T22:12:18.049Z,10.57
2017-10-05T22:14:45.579Z,10.48
2017-10-05T22:17:13.268Z,10.51
2017-10-05T22:19:40.828Z,10.40
2017-10-05T22:22:08.387Z,10.32
2017-10-05T22:24:36.354Z,10.11
2017-10-05T22:27:03.915Z,10.14
2017-10-05T22:29:31.498Z,10.15
2017-10-05T22:31:59.084Z,10.05
2017-10-05T22:34:27.132Z,10.05
2017-10-05T22:36:54.663Z,10.13
2017-10-05T22:39:22.516Z,10.17
2017-10-05T22:41:50.040Z,10.30
2017-10-05T22:44:17.572Z,10.39
2017-10-05T22:46:45.295Z,10.52
2017-10-05T22:49:12.867Z,10.55
2017-10-05T22:51:40.427Z,10.66
2017-10-05T22:54:08.299Z,10.64
2017-10-05T22:56:36.080Z,10.59
2017-10-05T22:59:03.616Z,10.73
2017-10-05T23:01:31.181Z,10.80
2017-10-05T23:03:58.735Z,10.85
2017-10-05T23:06:26.329Z,11.14
2017-10-05T23:08:53.955Z,11.14
2017-10-05T23:11:21.530Z,11.16
2017-10-05T23:13:49.060Z,11.34
2017-10-05T23:16:16.773Z,11.28
2017-10-05T23:18:44.300Z,11.39
2017-10-05T23:21:11.860Z,11.23
2017-10-05T23:23:39.752Z,11.48
2017-10-05T23:26:07.279Z,11.43
2017-10-05T23:28:34.838Z,11.41
2017-10-05T23:31:02.447Z,11.43
2017-10-05T23:33:30.057Z,11.47
2017-10-05T23:35:57.618Z,11.59
2017-10-05T23:38:25.381Z,11.56
2017-10-05T23:40:52.904Z,11.43
2017-10-05T23:43:20.440Z,11.45
2017-10-05T23:45:48.398Z,11.41
2017-10-05T23:48:16.076Z,11.40
2017-10-05T23:50:43.608Z,11.25
2017-10-05T23:53:11.564Z,11.21
2017-10-05T23:55:39.096Z,11.16
2017-10-05T23:58:06.618Z,11.16
